sensor_id;sensor_type;location;lat;lon;timestamp;P1;durP1;ratioP1;P2;durP2;ratioP2
65387;SDS011;51992;53.528;49.474;2023-07-31T00:01:33;3.15;;;1.65;;
65387;SDS011;51992;53.528;49.474;2023-07-31T00:03:59;4.00;;;1.42;;
65387;SDS011;51992;53.528;49.474;2023-07-31T00:06:25;1.77;;;1.67;;
65387;SDS011;51992;53.528;49.474;2023-07-31T00:08:51;3.38;;;1.63;;
65387;SDS011;51992;53.528;49.474;2023-07-31T00:11:17;2.55;;;1.70;;
65387;SDS011;51992;53.528;49.474;2023-07-31T00:13:43;3.63;;;1.70;;
65387;SDS011;51992;53.528;49.474;2023-07-31T00:16:09;1.85;;;1.55;;
65387;SDS011;51992;53.528;49.474;2023-07-31T00:18:35;2.55;;;1.67;;
65387;SDS011;51992;53.528;49.474;2023-07-31T00:21:00;4.57;;;1.60;;
65387;SDS011;51992;53.528;49.474;2023-07-31T00:23:26;2.50;;;1.70;;
65387;SDS011;51992;53.528;49.474;2023-07-31T00:25:52;3.67;;;1.90;;
65387;SDS011;51992;53.528;49.474;2023-07-31T00:28:18;2.13;;;1.58;;
65387;SDS011;51992;53.528;49.474;2023-07-31T00:30:44;3.83;;;1.60;;
65387;SDS011;51992;53.528;49.474;2023-07-31T00:33:10;3.78;;;2.15;;
65387;SDS011;51992;53.528;49.474;2023-07-31T00:35:36;4.55;;;1.88;;
65387;SDS011;51992;53.528;49.474;2023-07-31T00:38:02;2.08;;;1.70;;
65387;SDS011;51992;53.528;49.474;2023-07-31T00:40:28;2.72;;;1.60;;
65387;SDS011;51992;53.528;49.474;2023-07-31T00:42:53;1.70;;;1.60;;
65387;SDS011;51992;53.528;49.474;2023-07-31T00:45:19;2.92;;;1.60;;
65387;SDS011;51992;53.528;49.474;2023-07-31T00:47:48;2.33;;;1.60;;
65387;SDS011;51992;53.528;49.474;2023-07-31T00:50:14;4.45;;;1.77;;
65387;SDS011;51992;53.528;49.474;2023-07-31T00:52:40;4.88;;;2.00;;
65387;SDS011;51992;53.528;49.474;2023-07-31T00:55:06;4.93;;;2.30;;
65387;SDS011;51992;53.528;49.474;2023-07-31T00:57:32;2.47;;;1.80;;
65387;SDS011;51992;53.528;49.474;2023-07-31T00:59:59;4.25;;;1.73;;
65387;SDS011;51992;53.528;49.474;2023-07-31T01:02:25;5.00;;;1.90;;
65387;SDS011;51992;53.528;49.474;2023-07-31T01:04:51;2.75;;;1.90;;
65387;SDS011;51992;53.528;49.474;2023-07-31T01:07:20;3.20;;;2.05;;
65387;SDS011;51992;53.528;49.474;2023-07-31T01:10:03;2.63;;;1.88;;
65387;SDS011;51992;53.528;49.474;2023-07-31T01:12:30;1.70;;;1.60;;
65387;SDS011;51992;53.528;49.474;2023-07-31T01:15:07;4.57;;;1.90;;
65387;SDS011;51992;53.528;49.474;2023-07-31T01:17:36;4.45;;;1.95;;
65387;SDS011;51992;53.528;49.474;2023-07-31T01:20:03;2.92;;;1.40;;
65387;SDS011;51992;53.528;49.474;2023-07-31T01:25:01;3.15;;;1.40;;
65387;SDS011;51992;53.528;49.474;2023-07-31T01:27:30;5.07;;;1.70;;
65387;SDS011;51992;53.528;49.474;2023-07-31T01:30:03;1.55;;;1.23;;
65387;SDS011;51992;53.528;49.474;2023-07-31T01:32:36;2.97;;;1.25;;
65387;SDS011;51992;53.528;49.474;2023-07-31T01:35:05;3.85;;;1.80;;
65387;SDS011;51992;53.528;49.474;2023-07-31T01:37:31;3.92;;;1.50;;
65387;SDS011;51992;53.528;49.474;2023-07-31T01:39:57;2.13;;;1.60;;
65387;SDS011;51992;53.528;49.474;2023-07-31T01:42:23;1.58;;;1.48;;
65387;SDS011;51992;53.528;49.474;2023-07-31T01:44:49;3.42;;;1.60;;
65387;SDS011;51992;53.528;49.474;2023-07-31T01:47:15;2.85;;;1.73;;
65387;SDS011;51992;53.528;49.474;2023-07-31T01:49:41;2.33;;;1.23;;
65387;SDS011;51992;53.528;49.474;2023-07-31T01:52:07;1.52;;;1.40;;
65387;SDS011;51992;53.528;49.474;2023-07-31T01:54:32;5.57;;;1.95;;
65387;SDS011;51992;53.528;49.474;2023-07-31T01:56:59;2.42;;;1.80;;
65387;SDS011;51992;53.528;49.474;2023-07-31T01:59:25;4.45;;;1.65;;
65387;SDS011;51992;53.528;49.474;2023-07-31T02:01:51;1.73;;;1.63;;
65387;SDS011;51992;53.528;49.474;2023-07-31T02:04:17;1.48;;;1.38;;
65387;SDS011;51992;53.528;49.474;2023-07-31T02:06:43;1.98;;;1.38;;
65387;SDS011;51992;53.528;49.474;2023-07-31T02:09:09;1.45;;;1.35;;
65387;SDS011;51992;53.528;49.474;2023-07-31T02:11:35;1.75;;;1.65;;
65387;SDS011;51992;53.528;49.474;2023-07-31T02:14:01;2.38;;;1.40;;
65387;SDS011;51992;53.528;49.474;2023-07-31T02:16:27;1.98;;;1.88;;
65387;SDS011;51992;53.528;49.474;2023-07-31T02:18:53;2.88;;;1.73;;
65387;SDS011;51992;53.528;49.474;2023-07-31T02:21:19;4.97;;;1.48;;
65387;SDS011;51992;53.528;49.474;2023-07-31T02:23:45;4.05;;;1.70;;
65387;SDS011;51992;53.528;49.474;2023-07-31T02:26:11;5.35;;;1.88;;
65387;SDS011;51992;53.528;49.474;2023-07-31T02:28:36;4.53;;;1.52;;
65387;SDS011;51992;53.528;49.474;2023-07-31T02:31:03;1.85;;;1.33;;
65387;SDS011;51992;53.528;49.474;2023-07-31T02:33:28;7.72;;;1.95;;
65387;SDS011;51992;53.528;49.474;2023-07-31T02:35:54;1.85;;;1.23;;
65387;SDS011;51992;53.528;49.474;2023-07-31T02:38:20;9.80;;;1.83;;
65387;SDS011;51992;53.528;49.474;2023-07-31T02:40:46;6.07;;;1.80;;
65387;SDS011;51992;53.528;49.474;2023-07-31T02:43:13;1.60;;;1.50;;
65387;SDS011;51992;53.528;49.474;2023-07-31T02:45:39;3.17;;;1.90;;
65387;SDS011;51992;53.528;49.474;2023-07-31T02:48:05;4.20;;;1.40;;
65387;SDS011;51992;53.528;49.474;2023-07-31T02:50:31;2.47;;;1.50;;
65387;SDS011;51992;53.528;49.474;2023-07-31T02:52:57;3.25;;;1.42;;
65387;SDS011;51992;53.528;49.474;2023-07-31T02:55:23;3.00;;;1.45;;
65387;SDS011;51992;53.528;49.474;2023-07-31T02:57:49;2.33;;;1.48;;
65387;SDS011;51992;53.528;49.474;2023-07-31T03:00:15;2.50;;;1.35;;
65387;SDS011;51992;53.528;49.474;2023-07-31T03:02:41;4.15;;;1.90;;
65387;SDS011;51992;53.528;49.474;2023-07-31T03:05:07;3.83;;;1.20;;
65387;SDS011;51992;53.528;49.474;2023-07-31T03:07:33;1.95;;;1.25;;
65387;SDS011;51992;53.528;49.474;2023-07-31T03:09:59;4.20;;;1.30;;
65387;SDS011;51992;53.528;49.474;2023-07-31T03:12:25;2.85;;;1.55;;
65387;SDS011;51992;53.528;49.474;2023-07-31T03:14:51;1.52;;;1.42;;
65387;SDS011;51992;53.528;49.474;2023-07-31T03:17:17;4.30;;;1.63;;
65387;SDS011;51992;53.528;49.474;2023-07-31T03:19:43;10.30;;;2.50;;
65387;SDS011;51992;53.528;49.474;2023-07-31T03:22:10;7.22;;;2.30;;
65387;SDS011;51992;53.528;49.474;2023-07-31T03:24:35;7.35;;;2.22;;
65387;SDS011;51992;53.528;49.474;2023-07-31T03:27:01;5.07;;;2.17;;
65387;SDS011;51992;53.528;49.474;2023-07-31T03:29:27;3.25;;;1.90;;
65387;SDS011;51992;53.528;49.474;2023-07-31T03:31:53;2.83;;;1.92;;
65387;SDS011;51992;53.528;49.474;2023-07-31T03:34:19;4.70;;;2.00;;
65387;SDS011;51992;53.528;49.474;2023-07-31T03:36:45;9.65;;;2.70;;
65387;SDS011;51992;53.528;49.474;2023-07-31T03:39:11;8.40;;;3.47;;
65387;SDS011;51992;53.528;49.474;2023-07-31T03:41:37;4.30;;;2.28;;
65387;SDS011;51992;53.528;49.474;2023-07-31T03:44:03;5.63;;;2.60;;
65387;SDS011;51992;53.528;49.474;2023-07-31T03:46:28;2.42;;;1.95;;
65387;SDS011;51992;53.528;49.474;2023-07-31T03:48:54;5.55;;;2.00;;
65387;SDS011;51992;53.528;49.474;2023-07-31T03:51:20;7.05;;;2.00;;
65387;SDS011;51992;53.528;49.474;2023-07-31T03:53:46;5.78;;;2.22;;
65387;SDS011;51992;53.528;49.474;2023-07-31T03:56:13;3.28;;;2.10;;
65387;SDS011;51992;53.528;49.474;2023-07-31T03:58:39;3.35;;;1.90;;
65387;SDS011;51992;53.528;49.474;2023-07-31T04:01:05;6.50;;;2.00;;
65387;SDS011;51992;53.528;49.474;2023-07-31T04:03:31;2.05;;;1.45;;
65387;SDS011;51992;53.528;49.474;2023-07-31T04:05:57;5.10;;;1.83;;
65387;SDS011;51992;53.528;49.474;2023-07-31T04:08:23;5.72;;;2.10;;
65387;SDS011;51992;53.528;49.474;2023-07-31T04:10:49;5.90;;;2.20;;
65387;SDS011;51992;53.528;49.474;2023-07-31T04:13:16;5.78;;;2.05;;
65387;SDS011;51992;53.528;49.474;2023-07-31T04:15:42;4.32;;;2.13;;
65387;SDS011;51992;53.528;49.474;2023-07-31T04:18:08;5.07;;;1.85;;
65387;SDS011;51992;53.528;49.474;2023-07-31T04:20:33;6.28;;;2.03;;
65387;SDS011;51992;53.528;49.474;2023-07-31T04:22:59;8.75;;;2.40;;
65387;SDS011;51992;53.528;49.474;2023-07-31T04:25:25;6.82;;;2.53;;
65387;SDS011;51992;53.528;49.474;2023-07-31T04:27:51;5.43;;;1.92;;
65387;SDS011;51992;53.528;49.474;2023-07-31T04:30:17;5.10;;;2.28;;
65387;SDS011;51992;53.528;49.474;2023-07-31T04:32:43;5.72;;;1.90;;
65387;SDS011;51992;53.528;49.474;2023-07-31T04:35:10;7.07;;;2.95;;
65387;SDS011;51992;53.528;49.474;2023-07-31T04:37:35;9.20;;;2.38;;
65387;SDS011;51992;53.528;49.474;2023-07-31T04:40:01;5.57;;;2.17;;
65387;SDS011;51992;53.528;49.474;2023-07-31T04:42:27;6.95;;;2.47;;
65387;SDS011;51992;53.528;49.474;2023-07-31T04:44:53;6.38;;;1.92;;
65387;SDS011;51992;53.528;49.474;2023-07-31T04:47:19;6.97;;;2.17;;
65387;SDS011;51992;53.528;49.474;2023-07-31T04:49:45;5.22;;;2.40;;
65387;SDS011;51992;53.528;49.474;2023-07-31T04:52:11;12.57;;;2.72;;
65387;SDS011;51992;53.528;49.474;2023-07-31T04:54:37;7.30;;;2.05;;
65387;SDS011;51992;53.528;49.474;2023-07-31T04:57:03;4.72;;;2.17;;
65387;SDS011;51992;53.528;49.474;2023-07-31T04:59:29;4.18;;;1.90;;
65387;SDS011;51992;53.528;49.474;2023-07-31T05:02:02;8.63;;;2.55;;
65387;SDS011;51992;53.528;49.474;2023-07-31T05:04:28;2.53;;;1.73;;
65387;SDS011;51992;53.528;49.474;2023-07-31T05:06:54;2.35;;;2.13;;
65387;SDS011;51992;53.528;49.474;2023-07-31T05:09:20;4.03;;;1.80;;
65387;SDS011;51992;53.528;49.474;2023-07-31T05:11:46;10.32;;;1.75;;
65387;SDS011;51992;53.528;49.474;2023-07-31T05:14:12;6.55;;;2.03;;
65387;SDS011;51992;53.528;49.474;2023-07-31T05:16:38;8.63;;;2.33;;
65387;SDS011;51992;53.528;49.474;2023-07-31T05:19:04;8.90;;;2.30;;
65387;SDS011;51992;53.528;49.474;2023-07-31T05:21:30;4.97;;;2.47;;
65387;SDS011;51992;53.528;49.474;2023-07-31T05:23:56;5.68;;;1.80;;
65387;SDS011;51992;53.528;49.474;2023-07-31T05:26:21;3.85;;;2.00;;
65387;SDS011;51992;53.528;49.474;2023-07-31T05:28:47;4.00;;;1.85;;
65387;SDS011;51992;53.528;49.474;2023-07-31T05:31:13;6.88;;;1.80;;
65387;SDS011;51992;53.528;49.474;2023-07-31T05:33:38;8.10;;;2.75;;
65387;SDS011;51992;53.528;49.474;2023-07-31T05:36:04;5.65;;;2.17;;
65387;SDS011;51992;53.528;49.474;2023-07-31T05:38:30;5.68;;;2.08;;
65387;SDS011;51992;53.528;49.474;2023-07-31T05:40:56;5.50;;;2.33;;
65387;SDS011;51992;53.528;49.474;2023-07-31T05:43:21;7.72;;;2.20;;
65387;SDS011;51992;53.528;49.474;2023-07-31T05:45:47;5.72;;;2.10;;
65387;SDS011;51992;53.528;49.474;2023-07-31T05:48:13;5.05;;;1.95;;
65387;SDS011;51992;53.528;49.474;2023-07-31T05:50:38;15.88;;;3.28;;
65387;SDS011;51992;53.528;49.474;2023-07-31T05:53:05;12.57;;;2.38;;
65387;SDS011;51992;53.528;49.474;2023-07-31T05:55:31;7.90;;;2.30;;
65387;SDS011;51992;53.528;49.474;2023-07-31T05:57:57;5.30;;;1.90;;
65387;SDS011;51992;53.528;49.474;2023-07-31T06:00:23;3.03;;;1.75;;
65387;SDS011;51992;53.528;49.474;2023-07-31T06:02:48;6.45;;;1.73;;
65387;SDS011;51992;53.528;49.474;2023-07-31T06:05:14;8.07;;;2.35;;
65387;SDS011;51992;53.528;49.474;2023-07-31T06:07:40;13.15;;;2.75;;
65387;SDS011;51992;53.528;49.474;2023-07-31T06:10:06;3.42;;;1.95;;
65387;SDS011;51992;53.528;49.474;2023-07-31T06:12:34;7.30;;;1.85;;
65387;SDS011;51992;53.528;49.474;2023-07-31T06:14:59;11.82;;;2.17;;
65387;SDS011;51992;53.528;49.474;2023-07-31T06:17:25;5.88;;;1.80;;
65387;SDS011;51992;53.528;49.474;2023-07-31T06:19:55;4.97;;;1.70;;
65387;SDS011;51992;53.528;49.474;2023-07-31T06:22:21;6.05;;;1.88;;
65387;SDS011;51992;53.528;49.474;2023-07-31T06:24:47;6.55;;;2.00;;
65387;SDS011;51992;53.528;49.474;2023-07-31T06:27:12;9.48;;;2.70;;
65387;SDS011;51992;53.528;49.474;2023-07-31T06:29:38;4.93;;;1.75;;
65387;SDS011;51992;53.528;49.474;2023-07-31T06:32:04;5.13;;;2.00;;
65387;SDS011;51992;53.528;49.474;2023-07-31T06:34:29;5.05;;;2.95;;
65387;SDS011;51992;53.528;49.474;2023-07-31T06:36:56;3.53;;;1.88;;
65387;SDS011;51992;53.528;49.474;2023-07-31T06:39:21;9.90;;;2.83;;
65387;SDS011;51992;53.528;49.474;2023-07-31T06:41:47;5.57;;;1.88;;
65387;SDS011;51992;53.528;49.474;2023-07-31T06:44:13;10.88;;;2.83;;
65387;SDS011;51992;53.528;49.474;2023-07-31T06:46:39;6.72;;;2.42;;
65387;SDS011;51992;53.528;49.474;2023-07-31T06:49:05;2.17;;;1.80;;
65387;SDS011;51992;53.528;49.474;2023-07-31T06:51:30;2.92;;;1.77;;
65387;SDS011;51992;53.528;49.474;2023-07-31T06:54:01;4.32;;;1.98;;
65387;SDS011;51992;53.528;49.474;2023-07-31T06:56:27;5.47;;;1.85;;
65387;SDS011;51992;53.528;49.474;2023-07-31T06:58:53;5.65;;;1.92;;
65387;SDS011;51992;53.528;49.474;2023-07-31T07:01:18;5.60;;;2.83;;
65387;SDS011;51992;53.528;49.474;2023-07-31T07:03:44;9.02;;;3.42;;
65387;SDS011;51992;53.528;49.474;2023-07-31T07:06:10;11.68;;;4.72;;
65387;SDS011;51992;53.528;49.474;2023-07-31T07:08:35;13.38;;;3.67;;
65387;SDS011;51992;53.528;49.474;2023-07-31T07:11:01;7.32;;;3.17;;
65387;SDS011;51992;53.528;49.474;2023-07-31T07:13:27;14.55;;;3.30;;
65387;SDS011;51992;53.528;49.474;2023-07-31T07:15:53;10.10;;;3.15;;
65387;SDS011;51992;53.528;49.474;2023-07-31T07:18:18;6.72;;;2.58;;
65387;SDS011;51992;53.528;49.474;2023-07-31T07:20:49;9.55;;;2.78;;
65387;SDS011;51992;53.528;49.474;2023-07-31T07:23:15;18.05;;;4.00;;
65387;SDS011;51992;53.528;49.474;2023-07-31T07:25:41;13.52;;;2.65;;
65387;SDS011;51992;53.528;49.474;2023-07-31T07:28:07;13.88;;;3.80;;
65387;SDS011;51992;53.528;49.474;2023-07-31T07:30:32;3.58;;;2.20;;
65387;SDS011;51992;53.528;49.474;2023-07-31T07:32:58;19.38;;;4.00;;
65387;SDS011;51992;53.528;49.474;2023-07-31T07:35:24;18.98;;;3.65;;
65387;SDS011;51992;53.528;49.474;2023-07-31T07:37:49;14.13;;;3.97;;
65387;SDS011;51992;53.528;49.474;2023-07-31T07:40:15;17.13;;;3.33;;
65387;SDS011;51992;53.528;49.474;2023-07-31T07:42:41;8.45;;;2.22;;
65387;SDS011;51992;53.528;49.474;2023-07-31T07:45:07;8.13;;;2.97;;
65387;SDS011;51992;53.528;49.474;2023-07-31T07:47:33;13.60;;;4.15;;
65387;SDS011;51992;53.528;49.474;2023-07-31T07:49:59;10.90;;;3.63;;
65387;SDS011;51992;53.528;49.474;2023-07-31T07:52:24;9.77;;;3.53;;
65387;SDS011;51992;53.528;49.474;2023-07-31T07:54:50;12.93;;;4.45;;
65387;SDS011;51992;53.528;49.474;2023-07-31T07:57:16;10.73;;;4.25;;
65387;SDS011;51992;53.528;49.474;2023-07-31T07:59:42;6.07;;;2.50;;
65387;SDS011;51992;53.528;49.474;2023-07-31T08:02:07;6.43;;;3.60;;
65387;SDS011;51992;53.528;49.474;2023-07-31T08:04:33;6.95;;;3.92;;
65387;SDS011;51992;53.528;49.474;2023-07-31T08:06:59;7.72;;;3.15;;
65387;SDS011;51992;53.528;49.474;2023-07-31T08:09:24;2.65;;;2.22;;
65387;SDS011;51992;53.528;49.474;2023-07-31T08:11:50;5.97;;;2.53;;
65387;SDS011;51992;53.528;49.474;2023-07-31T08:14:16;2.53;;;2.00;;
65387;SDS011;51992;53.528;49.474;2023-07-31T08:16:42;10.02;;;2.10;;
65387;SDS011;51992;53.528;49.474;2023-07-31T08:19:07;3.10;;;1.60;;
65387;SDS011;51992;53.528;49.474;2023-07-31T08:21:33;5.97;;;2.35;;
65387;SDS011;51992;53.528;49.474;2023-07-31T08:23:59;10.40;;;2.33;;
65387;SDS011;51992;53.528;49.474;2023-07-31T08:26:25;6.40;;;1.90;;
65387;SDS011;51992;53.528;49.474;2023-07-31T08:28:50;3.03;;;1.90;;
65387;SDS011;51992;53.528;49.474;2023-07-31T08:31:16;3.80;;;2.28;;
65387;SDS011;51992;53.528;49.474;2023-07-31T08:33:42;5.85;;;2.13;;
65387;SDS011;51992;53.528;49.474;2023-07-31T08:36:07;3.08;;;1.83;;
65387;SDS011;51992;53.528;49.474;2023-07-31T08:38:33;5.80;;;2.25;;
65387;SDS011;51992;53.528;49.474;2023-07-31T08:40:59;5.82;;;2.53;;
65387;SDS011;51992;53.528;49.474;2023-07-31T08:43:25;3.22;;;1.90;;
65387;SDS011;51992;53.528;49.474;2023-07-31T08:45:51;4.63;;;2.38;;
65387;SDS011;51992;53.528;49.474;2023-07-31T08:48:17;5.10;;;2.00;;
65387;SDS011;51992;53.528;49.474;2023-07-31T08:50:44;5.05;;;2.60;;
65387;SDS011;51992;53.528;49.474;2023-07-31T08:53:10;8.57;;;3.95;;
65387;SDS011;51992;53.528;49.474;2023-07-31T08:55:37;10.13;;;3.83;;
65387;SDS011;51992;53.528;49.474;2023-07-31T08:58:03;6.78;;;3.45;;
65387;SDS011;51992;53.528;49.474;2023-07-31T09:00:29;6.82;;;2.72;;
65387;SDS011;51992;53.528;49.474;2023-07-31T09:03:01;5.63;;;3.08;;
65387;SDS011;51992;53.528;49.474;2023-07-31T09:05:29;3.50;;;2.60;;
65387;SDS011;51992;53.528;49.474;2023-07-31T09:07:54;5.53;;;2.63;;
65387;SDS011;51992;53.528;49.474;2023-07-31T09:10:21;3.30;;;2.40;;
65387;SDS011;51992;53.528;49.474;2023-07-31T09:12:46;5.97;;;2.25;;
65387;SDS011;51992;53.528;49.474;2023-07-31T09:15:12;14.38;;;2.85;;
65387;SDS011;51992;53.528;49.474;2023-07-31T09:17:38;9.82;;;2.97;;
65387;SDS011;51992;53.528;49.474;2023-07-31T09:20:22;9.00;;;2.58;;
65387;SDS011;51992;53.528;49.474;2023-07-31T09:22:48;5.63;;;2.70;;
65387;SDS011;51992;53.528;49.474;2023-07-31T09:30:16;5.32;;;2.20;;
65387;SDS011;51992;53.528;49.474;2023-07-31T09:32:43;7.47;;;2.50;;
65387;SDS011;51992;53.528;49.474;2023-07-31T09:35:28;19.38;;;3.47;;
65387;SDS011;51992;53.528;49.474;2023-07-31T09:37:58;9.52;;;2.40;;
65387;SDS011;51992;53.528;49.474;2023-07-31T09:42:54;20.20;;;3.28;;
65387;SDS011;51992;53.528;49.474;2023-07-31T09:45:19;14.32;;;2.75;;
65387;SDS011;51992;53.528;49.474;2023-07-31T09:47:48;5.68;;;3.25;;
65387;SDS011;51992;53.528;49.474;2023-07-31T09:50:14;5.35;;;2.80;;
65387;SDS011;51992;53.528;49.474;2023-07-31T09:52:41;6.18;;;2.45;;
65387;SDS011;51992;53.528;49.474;2023-07-31T09:55:07;3.80;;;2.65;;
65387;SDS011;51992;53.528;49.474;2023-07-31T09:57:33;21.25;;;3.42;;
65387;SDS011;51992;53.528;49.474;2023-07-31T09:59:59;19.17;;;3.65;;
65387;SDS011;51992;53.528;49.474;2023-07-31T10:02:25;16.50;;;3.33;;
65387;SDS011;51992;53.528;49.474;2023-07-31T10:04:51;14.30;;;2.95;;
65387;SDS011;51992;53.528;49.474;2023-07-31T10:07:18;12.45;;;2.65;;
65387;SDS011;51992;53.528;49.474;2023-07-31T10:09:45;6.70;;;3.00;;
65387;SDS011;51992;53.528;49.474;2023-07-31T10:12:12;10.95;;;3.22;;
65387;SDS011;51992;53.528;49.474;2023-07-31T10:14:40;10.38;;;3.55;;
65387;SDS011;51992;53.528;49.474;2023-07-31T10:17:06;11.45;;;2.95;;
65387;SDS011;51992;53.528;49.474;2023-07-31T10:19:33;13.05;;;3.50;;
65387;SDS011;51992;53.528;49.474;2023-07-31T10:22:00;16.48;;;3.95;;
65387;SDS011;51992;53.528;49.474;2023-07-31T10:24:28;17.80;;;4.32;;
65387;SDS011;51992;53.528;49.474;2023-07-31T10:26:54;18.58;;;5.10;;
65387;SDS011;51992;53.528;49.474;2023-07-31T10:29:23;7.47;;;3.30;;
65387;SDS011;51992;53.528;49.474;2023-07-31T10:31:49;17.00;;;3.45;;
65387;SDS011;51992;53.528;49.474;2023-07-31T10:34:15;20.15;;;6.85;;
65387;SDS011;51992;53.528;49.474;2023-07-31T10:36:41;12.82;;;3.13;;
65387;SDS011;51992;53.528;49.474;2023-07-31T10:39:33;12.68;;;3.85;;
65387;SDS011;51992;53.528;49.474;2023-07-31T10:41:53;9.13;;;3.42;;
65387;SDS011;51992;53.528;49.474;2023-07-31T10:44:18;10.95;;;3.15;;
65387;SDS011;51992;53.528;49.474;2023-07-31T10:46:45;9.30;;;3.05;;
65387;SDS011;51992;53.528;49.474;2023-07-31T10:49:13;15.25;;;3.38;;
65387;SDS011;51992;53.528;49.474;2023-07-31T10:51:47;11.50;;;2.97;;
65387;SDS011;51992;53.528;49.474;2023-07-31T10:54:16;9.45;;;2.95;;
65387;SDS011;51992;53.528;49.474;2023-07-31T10:56:46;9.30;;;3.08;;
65387;SDS011;51992;53.528;49.474;2023-07-31T10:59:15;8.05;;;3.08;;
65387;SDS011;51992;53.528;49.474;2023-07-31T11:01:49;4.55;;;2.38;;
65387;SDS011;51992;53.528;49.474;2023-07-31T11:04:15;11.98;;;3.47;;
65387;SDS011;51992;53.528;49.474;2023-07-31T11:06:55;13.48;;;3.75;;
65387;SDS011;51992;53.528;49.474;2023-07-31T11:09:20;6.15;;;2.78;;
65387;SDS011;51992;53.528;49.474;2023-07-31T11:11:46;10.27;;;3.53;;
65387;SDS011;51992;53.528;49.474;2023-07-31T11:14:12;4.90;;;3.65;;
65387;SDS011;51992;53.528;49.474;2023-07-31T11:16:38;10.98;;;3.67;;
65387;SDS011;51992;53.528;49.474;2023-07-31T11:19:08;6.57;;;4.35;;
65387;SDS011;51992;53.528;49.474;2023-07-31T11:21:34;9.80;;;4.25;;
65387;SDS011;51992;53.528;49.474;2023-07-31T11:24:00;4.93;;;2.50;;
65387;SDS011;51992;53.528;49.474;2023-07-31T11:26:25;5.85;;;3.00;;
65387;SDS011;51992;53.528;49.474;2023-07-31T11:28:51;6.30;;;2.53;;
65387;SDS011;51992;53.528;49.474;2023-07-31T11:31:17;6.55;;;3.00;;
65387;SDS011;51992;53.528;49.474;2023-07-31T11:33:43;6.78;;;3.40;;
65387;SDS011;51992;53.528;49.474;2023-07-31T11:36:19;11.40;;;4.68;;
65387;SDS011;51992;53.528;49.474;2023-07-31T11:38:45;22.77;;;9.82;;
65387;SDS011;51992;53.528;49.474;2023-07-31T11:41:13;31.35;;;13.57;;
65387;SDS011;51992;53.528;49.474;2023-07-31T11:43:39;14.65;;;7.05;;
65387;SDS011;51992;53.528;49.474;2023-07-31T11:46:04;13.82;;;5.95;;
65387;SDS011;51992;53.528;49.474;2023-07-31T11:48:33;10.38;;;3.50;;
65387;SDS011;51992;53.528;49.474;2023-07-31T11:50:59;4.38;;;3.40;;
65387;SDS011;51992;53.528;49.474;2023-07-31T11:53:29;12.65;;;3.25;;
65387;SDS011;51992;53.528;49.474;2023-07-31T11:55:57;8.43;;;3.70;;
65387;SDS011;51992;53.528;49.474;2023-07-31T11:58:23;5.85;;;3.20;;
65387;SDS011;51992;53.528;49.474;2023-07-31T12:00:49;7.93;;;3.60;;
65387;SDS011;51992;53.528;49.474;2023-07-31T12:03:15;9.90;;;3.28;;
65387;SDS011;51992;53.528;49.474;2023-07-31T12:05:41;8.23;;;2.70;;
65387;SDS011;51992;53.528;49.474;2023-07-31T12:08:10;8.85;;;3.30;;
65387;SDS011;51992;53.528;49.474;2023-07-31T12:10:37;19.10;;;7.40;;
65387;SDS011;51992;53.528;49.474;2023-07-31T12:15:29;16.75;;;6.47;;
65387;SDS011;51992;53.528;49.474;2023-07-31T12:17:56;7.38;;;3.33;;
65387;SDS011;51992;53.528;49.474;2023-07-31T12:20:22;15.10;;;3.60;;
65387;SDS011;51992;53.528;49.474;2023-07-31T12:22:48;4.18;;;2.60;;
65387;SDS011;51992;53.528;49.474;2023-07-31T12:25:16;8.57;;;3.65;;
65387;SDS011;51992;53.528;49.474;2023-07-31T12:27:45;13.25;;;5.60;;
65387;SDS011;51992;53.528;49.474;2023-07-31T12:30:56;11.45;;;5.75;;
65387;SDS011;51992;53.528;49.474;2023-07-31T12:33:14;17.13;;;5.07;;
65387;SDS011;51992;53.528;49.474;2023-07-31T12:35:40;18.38;;;6.25;;
65387;SDS011;51992;53.528;49.474;2023-07-31T12:38:06;21.50;;;9.90;;
65387;SDS011;51992;53.528;49.474;2023-07-31T12:40:32;16.98;;;8.88;;
65387;SDS011;51992;53.528;49.474;2023-07-31T12:43:00;19.02;;;6.70;;
65387;SDS011;51992;53.528;49.474;2023-07-31T12:45:27;20.23;;;6.10;;
65387;SDS011;51992;53.528;49.474;2023-07-31T12:47:53;23.20;;;6.20;;
65387;SDS011;51992;53.528;49.474;2023-07-31T12:50:18;27.42;;;7.38;;
65387;SDS011;51992;53.528;49.474;2023-07-31T12:52:44;34.65;;;6.68;;
65387;SDS011;51992;53.528;49.474;2023-07-31T12:55:10;16.58;;;4.53;;
65387;SDS011;51992;53.528;49.474;2023-07-31T12:57:36;10.85;;;4.05;;
65387;SDS011;51992;53.528;49.474;2023-07-31T13:00:02;13.60;;;4.35;;
65387;SDS011;51992;53.528;49.474;2023-07-31T13:02:28;25.83;;;5.80;;
65387;SDS011;51992;53.528;49.474;2023-07-31T13:04:54;23.38;;;6.72;;
65387;SDS011;51992;53.528;49.474;2023-07-31T13:07:22;12.82;;;3.88;;
65387;SDS011;51992;53.528;49.474;2023-07-31T13:09:48;11.50;;;3.55;;
65387;SDS011;51992;53.528;49.474;2023-07-31T13:12:13;17.38;;;3.40;;
65387;SDS011;51992;53.528;49.474;2023-07-31T13:14:39;12.82;;;3.13;;
65387;SDS011;51992;53.528;49.474;2023-07-31T13:17:05;11.73;;;3.53;;
65387;SDS011;51992;53.528;49.474;2023-07-31T13:19:31;22.25;;;4.63;;
65387;SDS011;51992;53.528;49.474;2023-07-31T13:21:57;18.38;;;3.75;;
65387;SDS011;51992;53.528;49.474;2023-07-31T13:24:22;9.10;;;2.85;;
65387;SDS011;51992;53.528;49.474;2023-07-31T13:26:48;10.13;;;3.40;;
65387;SDS011;51992;53.528;49.474;2023-07-31T13:29:14;7.95;;;3.40;;
65387;SDS011;51992;53.528;49.474;2023-07-31T13:31:40;21.48;;;5.30;;
65387;SDS011;51992;53.528;49.474;2023-07-31T13:34:06;10.18;;;3.42;;
65387;SDS011;51992;53.528;49.474;2023-07-31T13:36:31;8.75;;;4.03;;
65387;SDS011;51992;53.528;49.474;2023-07-31T13:38:59;12.80;;;4.15;;
65387;SDS011;51992;53.528;49.474;2023-07-31T13:41:25;8.93;;;4.63;;
65387;SDS011;51992;53.528;49.474;2023-07-31T13:43:51;12.15;;;4.63;;
65387;SDS011;51992;53.528;49.474;2023-07-31T13:46:16;12.10;;;4.65;;
65387;SDS011;51992;53.528;49.474;2023-07-31T13:48:42;13.38;;;6.40;;
65387;SDS011;51992;53.528;49.474;2023-07-31T13:51:08;11.23;;;6.47;;
65387;SDS011;51992;53.528;49.474;2023-07-31T13:53:33;11.57;;;6.78;;
65387;SDS011;51992;53.528;49.474;2023-07-31T13:55:59;17.35;;;6.45;;
65387;SDS011;51992;53.528;49.474;2023-07-31T13:58:25;11.35;;;6.18;;
65387;SDS011;51992;53.528;49.474;2023-07-31T14:00:50;13.60;;;5.10;;
65387;SDS011;51992;53.528;49.474;2023-07-31T14:03:16;10.30;;;4.80;;
65387;SDS011;51992;53.528;49.474;2023-07-31T14:05:42;11.40;;;4.88;;
65387;SDS011;51992;53.528;49.474;2023-07-31T14:08:07;12.68;;;3.35;;
65387;SDS011;51992;53.528;49.474;2023-07-31T14:10:33;8.45;;;3.15;;
65387;SDS011;51992;53.528;49.474;2023-07-31T14:12:59;9.57;;;3.30;;
65387;SDS011;51992;53.528;49.474;2023-07-31T14:15:24;10.18;;;3.55;;
65387;SDS011;51992;53.528;49.474;2023-07-31T14:17:50;9.18;;;3.58;;
65387;SDS011;51992;53.528;49.474;2023-07-31T14:20:16;6.47;;;3.08;;
65387;SDS011;51992;53.528;49.474;2023-07-31T14:22:41;6.00;;;3.17;;
65387;SDS011;51992;53.528;49.474;2023-07-31T14:25:07;9.55;;;3.33;;
65387;SDS011;51992;53.528;49.474;2023-07-31T14:27:35;10.45;;;3.22;;
65387;SDS011;51992;53.528;49.474;2023-07-31T14:30:02;6.55;;;3.15;;
65387;SDS011;51992;53.528;49.474;2023-07-31T14:32:28;6.25;;;2.97;;
65387;SDS011;51992;53.528;49.474;2023-07-31T14:34:53;9.57;;;3.00;;
65387;SDS011;51992;53.528;49.474;2023-07-31T14:37:20;16.02;;;4.28;;
65387;SDS011;51992;53.528;49.474;2023-07-31T14:39:45;7.00;;;3.30;;